sensor_id;sensor_type;location;lat;lon;timestamp;P1;durP1;ratioP1;P2;durP2;ratioP2
68432;SDS011;55412;51.350;17.056;2022-10-16T00:00:57;14.98;;;7.45;;
68432;SDS011;55412;51.350;17.056;2022-10-16T00:03:23;13.55;;;6.90;;
68432;SDS011;55412;51.350;17.056;2022-10-16T00:05:49;17.45;;;6.50;;
68432;SDS011;55412;51.350;17.056;2022-10-16T00:08:15;13.23;;;7.35;;
68432;SDS011;55412;51.350;17.056;2022-10-16T00:10:41;12.73;;;6.83;;
68432;SDS011;55412;51.350;17.056;2022-10-16T00:13:07;18.80;;;6.53;;
68432;SDS011;55412;51.350;17.056;2022-10-16T00:15:34;13.98;;;6.68;;
68432;SDS011;55412;51.350;17.056;2022-10-16T00:18:03;14.38;;;6.47;;
68432;SDS011;55412;51.350;17.056;2022-10-16T00:20:29;9.90;;;5.22;;
68432;SDS011;55412;51.350;17.056;2022-10-16T00:22:59;11.23;;;4.53;;
68432;SDS011;55412;51.350;17.056;2022-10-16T00:25:25;12.63;;;5.95;;
68432;SDS011;55412;51.350;17.056;2022-10-16T00:27:51;12.88;;;6.28;;
68432;SDS011;55412;51.350;17.056;2022-10-16T00:30:17;10.32;;;5.53;;
68432;SDS011;55412;51.350;17.056;2022-10-16T00:32:43;11.38;;;5.55;;
68432;SDS011;55412;51.350;17.056;2022-10-16T00:35:09;9.50;;;5.50;;
68432;SDS011;55412;51.350;17.056;2022-10-16T00:37:35;10.57;;;5.60;;
68432;SDS011;55412;51.350;17.056;2022-10-16T00:40:01;8.50;;;4.80;;
68432;SDS011;55412;51.350;17.056;2022-10-16T00:42:28;7.95;;;4.45;;
68432;SDS011;55412;51.350;17.056;2022-10-16T00:44:55;8.40;;;4.50;;
68432;SDS011;55412;51.350;17.056;2022-10-16T00:47:24;5.63;;;2.83;;
68432;SDS011;55412;51.350;17.056;2022-10-16T00:50:02;10.05;;;5.00;;
68432;SDS011;55412;51.350;17.056;2022-10-16T00:52:35;11.02;;;5.05;;
68432;SDS011;55412;51.350;17.056;2022-10-16T00:55:05;9.82;;;4.45;;
68432;SDS011;55412;51.350;17.056;2022-10-16T00:57:33;6.75;;;3.03;;
68432;SDS011;55412;51.350;17.056;2022-10-16T00:59:59;10.20;;;4.20;;
68432;SDS011;55412;51.350;17.056;2022-10-16T01:02:27;8.00;;;3.78;;
68432;SDS011;55412;51.350;17.056;2022-10-16T01:04:53;9.52;;;5.00;;
68432;SDS011;55412;51.350;17.056;2022-10-16T01:10:54;8.10;;;4.15;;
68432;SDS011;55412;51.350;17.056;2022-10-16T01:13:32;9.30;;;3.83;;
68432;SDS011;55412;51.350;17.056;2022-10-16T01:16:11;9.38;;;3.45;;
68432;SDS011;55412;51.350;17.056;2022-10-16T01:18:47;7.28;;;3.10;;
68432;SDS011;55412;51.350;17.056;2022-10-16T01:21:24;6.72;;;2.72;;
68432;SDS011;55412;51.350;17.056;2022-10-16T01:30:15;7.55;;;3.63;;
68432;SDS011;55412;51.350;17.056;2022-10-16T01:32:46;7.18;;;4.10;;
68432;SDS011;55412;51.350;17.056;2022-10-16T01:35:22;8.50;;;4.07;;
68432;SDS011;55412;51.350;17.056;2022-10-16T01:38:00;6.72;;;3.42;;
68432;SDS011;55412;51.350;17.056;2022-10-16T01:40:37;6.37;;;2.73;;
68432;SDS011;55412;51.350;17.056;2022-10-16T01:45:38;6.78;;;2.88;;
68432;SDS011;55412;51.350;17.056;2022-10-16T01:48:07;8.02;;;3.78;;
68432;SDS011;55412;51.350;17.056;2022-10-16T01:50:35;9.70;;;4.10;;
68432;SDS011;55412;51.350;17.056;2022-10-16T01:53:05;7.03;;;3.30;;
68432;SDS011;55412;51.350;17.056;2022-10-16T01:55:36;5.85;;;2.75;;
68432;SDS011;55412;51.350;17.056;2022-10-16T01:58:08;6.60;;;3.08;;
68432;SDS011;55412;51.350;17.056;2022-10-16T02:00:38;7.28;;;3.10;;
68432;SDS011;55412;51.350;17.056;2022-10-16T02:03:08;5.97;;;3.13;;
68432;SDS011;55412;51.350;17.056;2022-10-16T02:05:42;7.43;;;3.57;;
68432;SDS011;55412;51.350;17.056;2022-10-16T02:08:18;6.18;;;3.40;;
68432;SDS011;55412;51.350;17.056;2022-10-16T02:10:45;8.30;;;3.35;;
68432;SDS011;55412;51.350;17.056;2022-10-16T02:15:43;9.10;;;2.90;;
68432;SDS011;55412;51.350;17.056;2022-10-16T02:18:09;7.30;;;2.30;;
68432;SDS011;55412;51.350;17.056;2022-10-16T02:20:38;7.10;;;3.17;;
68432;SDS011;55412;51.350;17.056;2022-10-16T02:23:17;7.65;;;3.28;;
68432;SDS011;55412;51.350;17.056;2022-10-16T02:25:52;8.43;;;4.18;;
68432;SDS011;55412;51.350;17.056;2022-10-16T02:28:24;11.15;;;3.45;;
68432;SDS011;55412;51.350;17.056;2022-10-16T02:31:04;6.33;;;3.27;;
68432;SDS011;55412;51.350;17.056;2022-10-16T02:33:35;8.00;;;2.90;;
68432;SDS011;55412;51.350;17.056;2022-10-16T02:36:04;5.70;;;2.65;;
68432;SDS011;55412;51.350;17.056;2022-10-16T02:38:31;5.82;;;2.70;;
68432;SDS011;55412;51.350;17.056;2022-10-16T02:40:58;7.05;;;2.95;;
68432;SDS011;55412;51.350;17.056;2022-10-16T02:43:24;7.97;;;3.07;;
68432;SDS011;55412;51.350;17.056;2022-10-16T02:45:51;6.38;;;2.30;;
68432;SDS011;55412;51.350;17.056;2022-10-16T02:48:17;6.97;;;3.17;;
68432;SDS011;55412;51.350;17.056;2022-10-16T02:50:43;8.82;;;3.83;;
68432;SDS011;55412;51.350;17.056;2022-10-16T02:53:09;5.87;;;2.57;;
68432;SDS011;55412;51.350;17.056;2022-10-16T02:55:35;6.68;;;2.55;;
68432;SDS011;55412;51.350;17.056;2022-10-16T02:58:01;7.32;;;3.40;;
68432;SDS011;55412;51.350;17.056;2022-10-16T03:00:28;7.78;;;3.22;;
68432;SDS011;55412;51.350;17.056;2022-10-16T03:02:54;10.55;;;3.42;;
68432;SDS011;55412;51.350;17.056;2022-10-16T03:05:20;10.27;;;3.67;;
68432;SDS011;55412;51.350;17.056;2022-10-16T03:07:46;6.32;;;2.72;;
68432;SDS011;55412;51.350;17.056;2022-10-16T03:10:12;7.72;;;3.13;;
68432;SDS011;55412;51.350;17.056;2022-10-16T03:12:38;6.13;;;2.83;;
68432;SDS011;55412;51.350;17.056;2022-10-16T03:15:04;7.28;;;3.20;;
68432;SDS011;55412;51.350;17.056;2022-10-16T03:17:31;6.40;;;3.00;;
68432;SDS011;55412;51.350;17.056;2022-10-16T03:19:59;10.15;;;3.47;;
68432;SDS011;55412;51.350;17.056;2022-10-16T03:22:25;7.43;;;3.58;;
68432;SDS011;55412;51.350;17.056;2022-10-16T03:24:51;6.15;;;2.95;;
68432;SDS011;55412;51.350;17.056;2022-10-16T03:27:17;6.30;;;2.90;;
68432;SDS011;55412;51.350;17.056;2022-10-16T03:29:43;6.47;;;2.78;;
68432;SDS011;55412;51.350;17.056;2022-10-16T03:32:09;7.78;;;3.83;;
68432;SDS011;55412;51.350;17.056;2022-10-16T03:34:35;5.47;;;2.78;;
68432;SDS011;55412;51.350;17.056;2022-10-16T03:37:01;8.55;;;3.28;;
68432;SDS011;55412;51.350;17.056;2022-10-16T03:39:28;8.60;;;3.30;;
68432;SDS011;55412;51.350;17.056;2022-10-16T03:41:54;8.90;;;3.42;;
68432;SDS011;55412;51.350;17.056;2022-10-16T03:44:20;6.25;;;3.05;;
68432;SDS011;55412;51.350;17.056;2022-10-16T03:46:46;8.43;;;3.50;;
68432;SDS011;55412;51.350;17.056;2022-10-16T03:49:12;10.63;;;3.55;;
68432;SDS011;55412;51.350;17.056;2022-10-16T03:51:38;7.03;;;3.10;;
68432;SDS011;55412;51.350;17.056;2022-10-16T03:54:04;6.88;;;3.58;;
68432;SDS011;55412;51.350;17.056;2022-10-16T03:56:30;8.88;;;4.47;;
68432;SDS011;55412;51.350;17.056;2022-10-16T03:58:56;9.50;;;3.92;;
68432;SDS011;55412;51.350;17.056;2022-10-16T04:01:22;4.13;;;1.90;;
68432;SDS011;55412;51.350;17.056;2022-10-16T04:03:48;11.43;;;3.50;;
68432;SDS011;55412;51.350;17.056;2022-10-16T04:06:14;6.53;;;3.42;;
68432;SDS011;55412;51.350;17.056;2022-10-16T04:08:42;7.20;;;2.50;;
68432;SDS011;55412;51.350;17.056;2022-10-16T04:11:09;5.68;;;2.92;;
68432;SDS011;55412;51.350;17.056;2022-10-16T04:13:35;6.63;;;2.83;;
68432;SDS011;55412;51.350;17.056;2022-10-16T04:16:01;7.30;;;2.97;;
68432;SDS011;55412;51.350;17.056;2022-10-16T04:18:28;7.28;;;3.63;;
68432;SDS011;55412;51.350;17.056;2022-10-16T04:20:54;6.20;;;2.80;;
68432;SDS011;55412;51.350;17.056;2022-10-16T04:23:20;6.43;;;3.13;;
68432;SDS011;55412;51.350;17.056;2022-10-16T04:25:48;7.23;;;3.17;;
68432;SDS011;55412;51.350;17.056;2022-10-16T04:28:14;6.68;;;3.53;;
68432;SDS011;55412;51.350;17.056;2022-10-16T04:30:41;7.43;;;2.53;;
68432;SDS011;55412;51.350;17.056;2022-10-16T04:33:08;7.65;;;3.17;;
68432;SDS011;55412;51.350;17.056;2022-10-16T04:35:35;7.95;;;4.28;;
68432;SDS011;55412;51.350;17.056;2022-10-16T04:38:01;5.47;;;2.40;;
68432;SDS011;55412;51.350;17.056;2022-10-16T04:40:26;7.18;;;3.55;;
68432;SDS011;55412;51.350;17.056;2022-10-16T04:42:53;9.15;;;3.53;;
68432;SDS011;55412;51.350;17.056;2022-10-16T04:45:19;6.85;;;3.58;;
68432;SDS011;55412;51.350;17.056;2022-10-16T04:47:45;7.17;;;3.30;;
68432;SDS011;55412;51.350;17.056;2022-10-16T04:50:11;6.00;;;2.72;;
68432;SDS011;55412;51.350;17.056;2022-10-16T04:52:37;9.68;;;3.10;;
68432;SDS011;55412;51.350;17.056;2022-10-16T04:55:03;6.28;;;3.25;;
68432;SDS011;55412;51.350;17.056;2022-10-16T04:57:30;6.47;;;3.28;;
68432;SDS011;55412;51.350;17.056;2022-10-16T04:59:56;8.27;;;2.97;;
68432;SDS011;55412;51.350;17.056;2022-10-16T05:02:23;8.63;;;3.90;;
68432;SDS011;55412;51.350;17.056;2022-10-16T05:04:50;8.30;;;4.10;;
68432;SDS011;55412;51.350;17.056;2022-10-16T05:07:16;7.63;;;3.60;;
68432;SDS011;55412;51.350;17.056;2022-10-16T05:09:43;8.02;;;3.80;;
68432;SDS011;55412;51.350;17.056;2022-10-16T05:12:09;6.73;;;3.07;;
68432;SDS011;55412;51.350;17.056;2022-10-16T05:14:35;6.80;;;3.05;;
68432;SDS011;55412;51.350;17.056;2022-10-16T05:17:01;7.15;;;3.45;;
68432;SDS011;55412;51.350;17.056;2022-10-16T05:19:27;7.20;;;4.07;;
68432;SDS011;55412;51.350;17.056;2022-10-16T05:21:53;7.90;;;3.47;;
68432;SDS011;55412;51.350;17.056;2022-10-16T05:24:19;7.57;;;3.00;;
68432;SDS011;55412;51.350;17.056;2022-10-16T05:26:45;8.48;;;3.75;;
68432;SDS011;55412;51.350;17.056;2022-10-16T05:29:11;9.25;;;4.30;;
68432;SDS011;55412;51.350;17.056;2022-10-16T05:31:37;7.47;;;3.20;;
68432;SDS011;55412;51.350;17.056;2022-10-16T05:34:03;7.43;;;3.60;;
68432;SDS011;55412;51.350;17.056;2022-10-16T05:36:29;6.63;;;2.95;;
68432;SDS011;55412;51.350;17.056;2022-10-16T05:38:55;6.55;;;3.15;;
68432;SDS011;55412;51.350;17.056;2022-10-16T05:41:20;6.28;;;2.67;;
68432;SDS011;55412;51.350;17.056;2022-10-16T05:43:48;7.97;;;3.60;;
68432;SDS011;55412;51.350;17.056;2022-10-16T05:46:14;5.95;;;2.80;;
68432;SDS011;55412;51.350;17.056;2022-10-16T05:48:41;7.93;;;3.90;;
68432;SDS011;55412;51.350;17.056;2022-10-16T05:51:09;8.32;;;3.03;;
68432;SDS011;55412;51.350;17.056;2022-10-16T05:53:44;5.97;;;2.72;;
68432;SDS011;55412;51.350;17.056;2022-10-16T05:57:29;5.67;;;2.50;;
68432;SDS011;55412;51.350;17.056;2022-10-16T06:00:00;7.78;;;2.60;;
68432;SDS011;55412;51.350;17.056;2022-10-16T06:03:25;7.75;;;2.38;;
68432;SDS011;55412;51.350;17.056;2022-10-16T06:05:55;6.22;;;3.13;;
68432;SDS011;55412;51.350;17.056;2022-10-16T06:08:22;6.20;;;3.05;;
68432;SDS011;55412;51.350;17.056;2022-10-16T06:10:59;6.60;;;3.13;;
68432;SDS011;55412;51.350;17.056;2022-10-16T06:13:27;6.32;;;2.95;;
68432;SDS011;55412;51.350;17.056;2022-10-16T06:15:53;8.30;;;3.70;;
68432;SDS011;55412;51.350;17.056;2022-10-16T06:18:22;6.13;;;3.00;;
68432;SDS011;55412;51.350;17.056;2022-10-16T06:20:48;6.57;;;2.90;;
68432;SDS011;55412;51.350;17.056;2022-10-16T06:23:15;5.47;;;2.13;;
68432;SDS011;55412;51.350;17.056;2022-10-16T06:25:41;7.60;;;2.90;;
68432;SDS011;55412;51.350;17.056;2022-10-16T06:28:07;8.45;;;3.95;;
68432;SDS011;55412;51.350;17.056;2022-10-16T06:30:34;6.03;;;2.80;;
68432;SDS011;55412;51.350;17.056;2022-10-16T06:33:01;10.73;;;3.63;;
68432;SDS011;55412;51.350;17.056;2022-10-16T06:35:27;7.03;;;2.47;;
68432;SDS011;55412;51.350;17.056;2022-10-16T06:37:54;6.22;;;3.20;;
68432;SDS011;55412;51.350;17.056;2022-10-16T06:40:20;6.90;;;3.65;;
68432;SDS011;55412;51.350;17.056;2022-10-16T06:42:46;7.05;;;2.65;;
68432;SDS011;55412;51.350;17.056;2022-10-16T06:45:12;7.80;;;2.70;;
68432;SDS011;55412;51.350;17.056;2022-10-16T06:47:38;6.60;;;2.93;;
68432;SDS011;55412;51.350;17.056;2022-10-16T06:50:04;5.70;;;2.75;;
68432;SDS011;55412;51.350;17.056;2022-10-16T06:52:33;5.72;;;3.22;;
68432;SDS011;55412;51.350;17.056;2022-10-16T06:55:00;7.82;;;3.35;;
68432;SDS011;55412;51.350;17.056;2022-10-16T06:57:28;5.50;;;2.40;;
68432;SDS011;55412;51.350;17.056;2022-10-16T06:59:54;7.00;;;2.13;;
68432;SDS011;55412;51.350;17.056;2022-10-16T07:02:20;6.45;;;2.55;;
68432;SDS011;55412;51.350;17.056;2022-10-16T07:04:47;6.10;;;2.97;;
68432;SDS011;55412;51.350;17.056;2022-10-16T07:07:13;5.55;;;2.25;;
68432;SDS011;55412;51.350;17.056;2022-10-16T07:09:40;5.43;;;2.42;;
68432;SDS011;55412;51.350;17.056;2022-10-16T07:12:06;5.00;;;2.43;;
68432;SDS011;55412;51.350;17.056;2022-10-16T07:14:32;6.60;;;3.25;;
68432;SDS011;55412;51.350;17.056;2022-10-16T07:16:58;6.57;;;2.95;;
68432;SDS011;55412;51.350;17.056;2022-10-16T07:19:24;7.20;;;2.63;;
68432;SDS011;55412;51.350;17.056;2022-10-16T07:21:51;6.03;;;2.78;;
68432;SDS011;55412;51.350;17.056;2022-10-16T07:24:17;4.93;;;2.00;;
68432;SDS011;55412;51.350;17.056;2022-10-16T07:26:44;4.95;;;2.22;;
68432;SDS011;55412;51.350;17.056;2022-10-16T07:29:15;5.60;;;2.72;;
68432;SDS011;55412;51.350;17.056;2022-10-16T07:31:45;7.60;;;2.42;;
68432;SDS011;55412;51.350;17.056;2022-10-16T07:34:12;6.45;;;2.80;;
68432;SDS011;55412;51.350;17.056;2022-10-16T07:36:42;7.43;;;2.73;;
68432;SDS011;55412;51.350;17.056;2022-10-16T07:39:09;7.30;;;2.25;;
68432;SDS011;55412;51.350;17.056;2022-10-16T07:41:35;6.43;;;2.60;;
68432;SDS011;55412;51.350;17.056;2022-10-16T07:44:02;4.32;;;1.73;;
68432;SDS011;55412;51.350;17.056;2022-10-16T07:46:29;8.18;;;2.95;;
68432;SDS011;55412;51.350;17.056;2022-10-16T07:48:56;5.57;;;2.23;;
68432;SDS011;55412;51.350;17.056;2022-10-16T07:51:23;4.72;;;2.00;;
68432;SDS011;55412;51.350;17.056;2022-10-16T07:53:52;4.75;;;2.42;;
68432;SDS011;55412;51.350;17.056;2022-10-16T07:56:18;8.10;;;2.22;;
68432;SDS011;55412;51.350;17.056;2022-10-16T07:58:45;5.00;;;2.67;;
68432;SDS011;55412;51.350;17.056;2022-10-16T08:01:13;5.20;;;2.60;;
68432;SDS011;55412;51.350;17.056;2022-10-16T08:03:47;5.72;;;2.80;;
68432;SDS011;55412;51.350;17.056;2022-10-16T08:06:16;5.30;;;2.67;;
68432;SDS011;55412;51.350;17.056;2022-10-16T08:08:44;5.47;;;1.90;;
68432;SDS011;55412;51.350;17.056;2022-10-16T08:11:10;5.45;;;2.35;;
68432;SDS011;55412;51.350;17.056;2022-10-16T08:13:36;3.93;;;1.63;;
68432;SDS011;55412;51.350;17.056;2022-10-16T08:16:03;4.95;;;1.98;;
68432;SDS011;55412;51.350;17.056;2022-10-16T08:18:36;4.85;;;1.83;;
68432;SDS011;55412;51.350;17.056;2022-10-16T08:21:05;5.70;;;2.25;;
68432;SDS011;55412;51.350;17.056;2022-10-16T08:23:33;4.78;;;1.85;;
68432;SDS011;55412;51.350;17.056;2022-10-16T08:26:03;4.13;;;1.77;;
68432;SDS011;55412;51.350;17.056;2022-10-16T08:28:31;4.93;;;1.67;;
68432;SDS011;55412;51.350;17.056;2022-10-16T08:31:11;7.50;;;2.38;;
68432;SDS011;55412;51.350;17.056;2022-10-16T08:33:40;5.10;;;1.95;;
68432;SDS011;55412;51.350;17.056;2022-10-16T08:36:10;4.65;;;2.55;;
68432;SDS011;55412;51.350;17.056;2022-10-16T08:38:37;4.83;;;1.70;;
68432;SDS011;55412;51.350;17.056;2022-10-16T08:49:31;4.22;;;2.00;;
68432;SDS011;55412;51.350;17.056;2022-10-16T08:51:57;5.03;;;1.50;;
68432;SDS011;55412;51.350;17.056;2022-10-16T08:54:32;5.55;;;2.00;;
68432;SDS011;55412;51.350;17.056;2022-10-16T08:59:38;4.30;;;1.77;;
68432;SDS011;55412;51.350;17.056;2022-10-16T09:02:15;3.47;;;1.58;;
68432;SDS011;55412;51.350;17.056;2022-10-16T09:04:52;5.60;;;1.70;;
68432;SDS011;55412;51.350;17.056;2022-10-16T09:07:41;5.13;;;1.80;;
68432;SDS011;55412;51.350;17.056;2022-10-16T09:14:06;4.53;;;2.25;;
68432;SDS011;55412;51.350;17.056;2022-10-16T09:21:40;4.63;;;1.80;;
68432;SDS011;55412;51.350;17.056;2022-10-16T09:26:45;4.30;;;1.77;;
68432;SDS011;55412;51.350;17.056;2022-10-16T09:29:13;5.00;;;2.15;;
68432;SDS011;55412;51.350;17.056;2022-10-16T09:31:46;4.70;;;2.17;;
68432;SDS011;55412;51.350;17.056;2022-10-16T09:34:34;4.43;;;2.00;;
68432;SDS011;55412;51.350;17.056;2022-10-16T09:37:03;4.07;;;2.00;;
68432;SDS011;55412;51.350;17.056;2022-10-16T09:39:48;4.53;;;1.80;;
68432;SDS011;55412;51.350;17.056;2022-10-16T09:44:57;3.50;;;1.50;;
68432;SDS011;55412;51.350;17.056;2022-10-16T09:47:23;3.53;;;1.50;;
68432;SDS011;55412;51.350;17.056;2022-10-16T09:49:58;4.32;;;1.55;;
68432;SDS011;55412;51.350;17.056;2022-10-16T09:52:29;6.13;;;1.92;;
68432;SDS011;55412;51.350;17.056;2022-10-16T09:54:57;6.72;;;1.63;;
68432;SDS011;55412;51.350;17.056;2022-10-16T09:57:34;3.13;;;1.13;;
68432;SDS011;55412;51.350;17.056;2022-10-16T10:00:00;4.40;;;1.73;;
68432;SDS011;55412;51.350;17.056;2022-10-16T10:02:35;4.03;;;1.50;;
68432;SDS011;55412;51.350;17.056;2022-10-16T10:05:04;3.80;;;1.42;;
68432;SDS011;55412;51.350;17.056;2022-10-16T10:07:43;4.00;;;1.60;;
68432;SDS011;55412;51.350;17.056;2022-10-16T10:10:20;4.23;;;1.47;;
68432;SDS011;55412;51.350;17.056;2022-10-16T10:12:54;3.55;;;1.42;;
68432;SDS011;55412;51.350;17.056;2022-10-16T10:15:22;3.65;;;1.40;;
68432;SDS011;55412;51.350;17.056;2022-10-16T10:17:50;3.90;;;1.50;;
68432;SDS011;55412;51.350;17.056;2022-10-16T10:20:24;4.03;;;1.48;;
68432;SDS011;55412;51.350;17.056;2022-10-16T10:22:52;7.00;;;1.83;;
68432;SDS011;55412;51.350;17.056;2022-10-16T10:34:39;5.00;;;2.15;;
68432;SDS011;55412;51.350;17.056;2022-10-16T10:37:03;3.83;;;1.73;;
68432;SDS011;55412;51.350;17.056;2022-10-16T10:46:05;3.70;;;1.40;;
68432;SDS011;55412;51.350;17.056;2022-10-16T10:48:52;4.85;;;1.30;;
68432;SDS011;55412;51.350;17.056;2022-10-16T10:51:36;5.63;;;1.13;;
68432;SDS011;55412;51.350;17.056;2022-10-16T10:54:28;3.50;;;1.50;;
68432;SDS011;55412;51.350;17.056;2022-10-16T11:03:31;4.57;;;1.73;;
68432;SDS011;55412;51.350;17.056;2022-10-16T11:06:59;3.23;;;1.17;;
68432;SDS011;55412;51.350;17.056;2022-10-16T11:09:28;6.07;;;1.48;;
68432;SDS011;55412;51.350;17.056;2022-10-16T11:17:38;4.00;;;1.50;;
68432;SDS011;55412;51.350;17.056;2022-10-16T11:20:32;4.33;;;1.80;;
68432;SDS011;55412;51.350;17.056;2022-10-16T11:23:11;5.28;;;1.63;;
68432;SDS011;55412;51.350;17.056;2022-10-16T11:25:46;4.30;;;1.95;;
68432;SDS011;55412;51.350;17.056;2022-10-16T11:31:05;4.57;;;1.73;;
68432;SDS011;55412;51.350;17.056;2022-10-16T11:33:46;3.80;;;1.70;;
68432;SDS011;55412;51.350;17.056;2022-10-16T11:41:42;3.95;;;1.98;;
68432;SDS011;55412;51.350;17.056;2022-10-16T11:47:34;4.30;;;1.77;;
68432;SDS011;55412;51.350;17.056;2022-10-16T11:52:51;6.40;;;1.70;;
68432;SDS011;55412;51.350;17.056;2022-10-16T11:55:42;3.67;;;1.60;;
68432;SDS011;55412;51.350;17.056;2022-10-16T11:58:21;6.13;;;1.58;;
68432;SDS011;55412;51.350;17.056;2022-10-16T12:06:37;3.60;;;1.20;;
68432;SDS011;55412;51.350;17.056;2022-10-16T12:09:14;3.85;;;1.20;;
68432;SDS011;55412;51.350;17.056;2022-10-16T12:11:52;3.47;;;1.40;;
68432;SDS011;55412;51.350;17.056;2022-10-16T12:14:38;5.10;;;1.10;;
68432;SDS011;55412;51.350;17.056;2022-10-16T12:19:56;3.70;;;1.05;;
68432;SDS011;55412;51.350;17.056;2022-10-16T12:22:41;3.45;;;1.17;;
68432;SDS011;55412;51.350;17.056;2022-10-16T12:25:25;3.90;;;1.40;;
68432;SDS011;55412;51.350;17.056;2022-10-16T12:27:53;6.13;;;1.90;;
68432;SDS011;55412;51.350;17.056;2022-10-16T12:30:40;3.80;;;1.10;;
68432;SDS011;55412;51.350;17.056;2022-10-16T12:33:25;3.50;;;1.33;;
68432;SDS011;55412;51.350;17.056;2022-10-16T12:35:54;4.78;;;1.20;;
68432;SDS011;55412;51.350;17.056;2022-10-16T12:38:35;6.05;;;2.00;;
68432;SDS011;55412;51.350;17.056;2022-10-16T12:41:23;4.83;;;1.53;;
68432;SDS011;55412;51.350;17.056;2022-10-16T12:43:55;4.35;;;1.20;;
68432;SDS011;55412;51.350;17.056;2022-10-16T12:49:04;6.72;;;1.35;;
68432;SDS011;55412;51.350;17.056;2022-10-16T12:51:34;3.50;;;1.40;;
68432;SDS011;55412;51.350;17.056;2022-10-16T12:54:15;3.43;;;1.13;;
68432;SDS011;55412;51.350;17.056;2022-10-16T13:06:35;7.18;;;1.45;;
68432;SDS011;55412;51.350;17.056;2022-10-16T13:12:37;3.50;;;1.50;;
68432;SDS011;55412;51.350;17.056;2022-10-16T13:18:22;7.13;;;1.42;;
68432;SDS011;55412;51.350;17.056;2022-10-16T13:24:37;3.90;;;1.63;;
68432;SDS011;55412;51.350;17.056;2022-10-16T13:30:13;6.20;;;1.70;;
68432;SDS011;55412;51.350;17.056;2022-10-16T13:32:48;2.60;;;0.60;;
68432;SDS011;55412;51.350;17.056;2022-10-16T13:35:45;4.55;;;1.45;;
68432;SDS011;55412;51.350;17.056;2022-10-16T13:38:19;3.30;;;1.40;;
68432;SDS011;55412;51.350;17.056;2022-10-16T13:40:58;4.20;;;1.33;;
68432;SDS011;55412;51.350;17.056;2022-10-16T13:43:33;4.07;;;1.90;;
68432;SDS011;55412;51.350;17.056;2022-10-16T13:46:05;5.70;;;1.20;;
68432;SDS011;55412;51.350;17.056;2022-10-16T13:48:43;4.43;;;1.80;;
68432;SDS011;55412;51.350;17.056;2022-10-16T13:51:22;3.63;;;1.10;;
68432;SDS011;55412;51.350;17.056;2022-10-16T13:53:48;7.97;;;1.38;;
68432;SDS011;55412;51.350;17.056;2022-10-16T13:56:15;3.35;;;1.20;;
68432;SDS011;55412;51.350;17.056;2022-10-16T13:59:03;4.47;;;1.98;;
68432;SDS011;55412;51.350;17.056;2022-10-16T14:01:40;3.20;;;1.23;;
68432;SDS011;55412;51.350;17.056;2022-10-16T14:04:09;4.33;;;1.23;;
68432;SDS011;55412;51.350;17.056;2022-10-16T14:06:40;4.18;;;1.42;;
68432;SDS011;55412;51.350;17.056;2022-10-16T14:09:25;5.70;;;2.05;;
68432;SDS011;55412;51.350;17.056;2022-10-16T14:11:55;3.38;;;1.20;;
68432;SDS011;55412;51.350;17.056;2022-10-16T14:15:02;5.22;;;1.67;;
68432;SDS011;55412;51.350;17.056;2022-10-16T14:17:23;4.47;;;1.50;;
68432;SDS011;55412;51.350;17.056;2022-10-16T14:19:55;3.22;;;0.95;;
68432;SDS011;55412;51.350;17.056;2022-10-16T14:22:36;4.97;;;1.48;;
68432;SDS011;55412;51.350;17.056;2022-10-16T14:27:45;5.00;;;1.30;;
68432;SDS011;55412;51.350;17.056;2022-10-16T14:30:54;4.07;;;1.47;;
68432;SDS011;55412;51.350;17.056;2022-10-16T14:33:24;4.47;;;1.35;;
68432;SDS011;55412;51.350;17.056;2022-10-16T14:36:02;4.07;;;1.85;;
68432;SDS011;55412;51.350;17.056;2022-10-16T14:38:35;5.57;;;1.80;;
68432;SDS011;55412;51.350;17.056;2022-10-16T14:41:06;4.63;;;2.08;;
68432;SDS011;55412;51.350;17.056;2022-10-16T14:43:36;5.43;;;1.50;;
68432;SDS011;55412;51.350;17.056;2022-10-16T14:46:17;4.43;;;1.63;;
68432;SDS011;55412;51.350;17.056;2022-10-16T14:48:56;4.65;;;2.20;;
68432;SDS011;55412;51.350;17.056;2022-10-16T14:51:41;5.40;;;1.73;;
68432;SDS011;55412;51.350;17.056;2022-10-16T14:54:10;4.25;;;1.77;;
68432;SDS011;55412;51.350;17.056;2022-10-16T14:56:51;4.87;;;2.13;;
68432;SDS011;55412;51.350;17.056;2022-10-16T15:01:59;4.72;;;1.98;;
68432;SDS011;55412;51.350;17.056;2022-10-16T15:04:26;5.13;;;2.08;;
68432;SDS011;55412;51.350;17.056;2022-10-16T15:06:52;6.03;;;2.20;;
68432;SDS011;55412;51.350;17.056;2022-10-16T15:09:18;6.27;;;2.00;;
68432;SDS011;55412;51.350;17.056;2022-10-16T15:11:44;4.85;;;2.00;;
68432;SDS011;55412;51.350;17.056;2022-10-16T15:14:12;4.93;;;1.90;;
68432;SDS011;55412;51.350;17.056;2022-10-16T15:16:39;5.00;;;1.83;;
68432;SDS011;55412;51.350;17.056;2022-10-16T15:19:05;4.72;;;2.05;;
68432;SDS011;55412;51.350;17.056;2022-10-16T15:21:31;5.80;;;1.93;;
68432;SDS011;55412;51.350;17.056;2022-10-16T15:23:58;4.03;;;1.75;;
68432;SDS011;55412;51.350;17.056;2022-10-16T15:26:25;4.45;;;1.73;;
68432;SDS011;55412;51.350;17.056;2022-10-16T15:28:53;5.07;;;1.90;;
68432;SDS011;55412;51.350;17.056;2022-10-16T15:31:20;4.40;;;1.90;;
68432;SDS011;55412;51.350;17.056;2022-10-16T15:33:49;7.13;;;2.20;;
68432;SDS011;55412;51.350;17.056;2022-10-16T15:36:24;5.88;;;1.95;;
68432;SDS011;55412;51.350;17.056;2022-10-16T15:39:02;5.47;;;2.10;;
68432;SDS011;55412;51.350;17.056;2022-10-16T15:41:31;6.53;;;2.10;;
68432;SDS011;55412;51.350;17.056;2022-10-16T15:43:57;4.40;;;2.22;;
68432;SDS011;55412;51.350;17.056;2022-10-16T15:46:24;5.53;;;2.17;;
68432;SDS011;55412;51.350;17.056;2022-10-16T15:48:50;7.38;;;2.88;;
68432;SDS011;55412;51.350;17.056;2022-10-16T15:51:21;5.20;;;2.40;;
68432;SDS011;55412;51.350;17.056;2022-10-16T15:53:47;4.97;;;2.53;;
68432;SDS011;55412;51.350;17.056;2022-10-16T15:56:13;6.10;;;2.45;;
68432;SDS011;55412;51.350;17.056;2022-10-16T15:58:40;8.70;;;2.10;;
68432;SDS011;55412;51.350;17.056;2022-10-16T16:01:07;5.57;;;2.30;;
68432;SDS011;55412;51.350;17.056;2022-10-16T16:03:35;8.68;;;2.55;;
68432;SDS011;55412;51.350;17.056;2022-10-16T16:06:05;5.18;;;2.05;;
68432;SDS011;55412;51.350;17.056;2022-10-16T16:08:34;4.72;;;2.00;;
68432;SDS011;55412;51.350;17.056;2022-10-16T16:11:04;5.67;;;2.50;;
68432;SDS011;55412;51.350;17.056;2022-10-16T16:13:34;6.45;;;2.80;;
68432;SDS011;55412;51.350;17.056;2022-10-16T16:16:04;9.05;;;2.30;;
68432;SDS011;55412;51.350;17.056;2022-10-16T16:18:35;6.95;;;2.35;;
68432;SDS011;55412;51.350;17.056;2022-10-16T16:21:03;7.63;;;2.70;;
68432;SDS011;55412;51.350;17.056;2022-10-16T16:23:30;5.07;;;2.30;;
68432;SDS011;55412;51.350;17.056;2022-10-16T16:26:13;5.95;;;2.40;;
68432;SDS011;55412;51.350;17.056;2022-10-16T16:28:41;7.38;;;2.92;;
68432;SDS011;55412;51.350;17.056;2022-10-16T16:31:08;4.90;;;2.17;;
68432;SDS011;55412;51.350;17.056;2022-10-16T16:33:35;5.53;;;2.88;;
68432;SDS011;55412;51.350;17.056;2022-10-16T16:36:03;5.20;;;2.23;;
68432;SDS011;55412;51.350;17.056;2022-10-16T16:38:31;4.70;;;2.65;;
68432;SDS011;55412;51.350;17.056;2022-10-16T16:40:59;6.00;;;2.85;;
68432;SDS011;55412;51.350;17.056;2022-10-16T16:43:39;4.78;;;2.20;;
68432;SDS011;55412;51.350;17.056;2022-10-16T16:46:05;6.75;;;2.75;;
68432;SDS011;55412;51.350;17.056;2022-10-16T16:48:31;6.60;;;2.97;;
68432;SDS011;55412;51.350;17.056;2022-10-16T16:51:19;7.00;;;2.65;;
68432;SDS011;55412;51.350;17.056;2022-10-16T16:53:45;8.80;;;3.08;;
68432;SDS011;55412;51.350;17.056;2022-10-16T16:56:14;6.55;;;3.20;;